sensor_id;sensor_type;location;lat;lon;timestamp;P1;durP1;ratioP1;P2;durP2;ratioP2
56746;SDS011;42623;49.978;9.966;2023-01-24T00:00:03;9.93;;;5.00;;
56746;SDS011;42623;49.978;9.966;2023-01-24T00:00:13;9.40;;;5.18;;
56746;SDS011;42623;49.978;9.966;2023-01-24T00:00:23;9.52;;;5.38;;
56746;SDS011;42623;49.978;9.966;2023-01-24T00:00:33;10.03;;;5.50;;
56746;SDS011;42623;49.978;9.966;2023-01-24T00:00:44;10.70;;;5.30;;
56746;SDS011;42623;49.978;9.966;2023-01-24T00:00:54;10.20;;;5.00;;
56746;SDS011;42623;49.978;9.966;2023-01-24T00:01:04;10.60;;;5.10;;
56746;SDS011;42623;49.978;9.966;2023-01-24T00:01:14;11.48;;;5.47;;
56746;SDS011;42623;49.978;9.966;2023-01-24T00:01:24;11.53;;;5.83;;
56746;SDS011;42623;49.978;9.966;2023-01-24T00:01:35;12.60;;;5.80;;
56746;SDS011;42623;49.978;9.966;2023-01-24T00:01:45;11.23;;;5.68;;
56746;SDS011;42623;49.978;9.966;2023-01-24T00:01:55;10.23;;;5.17;;
56746;SDS011;42623;49.978;9.966;2023-01-24T00:02:05;7.67;;;4.53;;
56746;SDS011;42623;49.978;9.966;2023-01-24T00:02:15;8.17;;;4.43;;
56746;SDS011;42623;49.978;9.966;2023-01-24T00:02:25;9.33;;;4.93;;
56746;SDS011;42623;49.978;9.966;2023-01-24T00:02:36;9.52;;;5.03;;
56746;SDS011;42623;49.978;9.966;2023-01-24T00:02:46;9.63;;;5.13;;
56746;SDS011;42623;49.978;9.966;2023-01-24T00:02:56;9.23;;;4.90;;
56746;SDS011;42623;49.978;9.966;2023-01-24T00:03:06;10.03;;;5.73;;
56746;SDS011;42623;49.978;9.966;2023-01-24T00:03:21;10.63;;;5.88;;
56746;SDS011;42623;49.978;9.966;2023-01-24T00:03:32;11.60;;;6.00;;
56746;SDS011;42623;49.978;9.966;2023-01-24T00:03:42;10.30;;;5.43;;
56746;SDS011;42623;49.978;9.966;2023-01-24T00:03:52;9.88;;;5.10;;
56746;SDS011;42623;49.978;9.966;2023-01-24T00:04:02;8.50;;;4.43;;
56746;SDS011;42623;49.978;9.966;2023-01-24T00:04:12;8.57;;;4.23;;
56746;SDS011;42623;49.978;9.966;2023-01-24T00:04:22;9.23;;;4.30;;
56746;SDS011;42623;49.978;9.966;2023-01-24T00:04:33;9.00;;;4.17;;
56746;SDS011;42623;49.978;9.966;2023-01-24T00:04:43;9.75;;;4.72;;
56746;SDS011;42623;49.978;9.966;2023-01-24T00:04:53;9.23;;;5.30;;
56746;SDS011;42623;49.978;9.966;2023-01-24T00:05:04;9.30;;;5.30;;
56746;SDS011;42623;49.978;9.966;2023-01-24T00:05:14;8.98;;;5.32;;
56746;SDS011;42623;49.978;9.966;2023-01-24T00:05:24;9.73;;;5.53;;
56746;SDS011;42623;49.978;9.966;2023-01-24T00:05:34;10.93;;;6.00;;
56746;SDS011;42623;49.978;9.966;2023-01-24T00:05:45;10.50;;;5.72;;
56746;SDS011;42623;49.978;9.966;2023-01-24T00:05:56;10.73;;;5.38;;
56746;SDS011;42623;49.978;9.966;2023-01-24T00:06:06;10.30;;;5.40;;
56746;SDS011;42623;49.978;9.966;2023-01-24T00:06:17;9.82;;;5.32;;
56746;SDS011;42623;49.978;9.966;2023-01-24T00:06:27;9.53;;;5.37;;
56746;SDS011;42623;49.978;9.966;2023-01-24T00:06:37;9.10;;;4.97;;
56746;SDS011;42623;49.978;9.966;2023-01-24T00:06:47;9.40;;;4.85;;
56746;SDS011;42623;49.978;9.966;2023-01-24T00:06:57;9.30;;;4.97;;
56746;SDS011;42623;49.978;9.966;2023-01-24T00:07:08;10.33;;;5.87;;
56746;SDS011;42623;49.978;9.966;2023-01-24T00:07:18;10.63;;;5.97;;
56746;SDS011;42623;49.978;9.966;2023-01-24T00:07:28;10.27;;;5.70;;
56746;SDS011;42623;49.978;9.966;2023-01-24T00:07:38;9.50;;;5.10;;
56746;SDS011;42623;49.978;9.966;2023-01-24T00:07:48;8.87;;;4.97;;
56746;SDS011;42623;49.978;9.966;2023-01-24T00:07:58;9.03;;;4.90;;
56746;SDS011;42623;49.978;9.966;2023-01-24T00:08:10;9.20;;;4.87;;
56746;SDS011;42623;49.978;9.966;2023-01-24T00:08:22;10.10;;;5.15;;
56746;SDS011;42623;49.978;9.966;2023-01-24T00:08:34;10.80;;;5.40;;
56746;SDS011;42623;49.978;9.966;2023-01-24T00:08:45;11.23;;;5.70;;
56746;SDS011;42623;49.978;9.966;2023-01-24T00:08:55;11.30;;;5.37;;
56746;SDS011;42623;49.978;9.966;2023-01-24T00:09:05;9.73;;;4.93;;
56746;SDS011;42623;49.978;9.966;2023-01-24T00:09:15;8.83;;;4.87;;
56746;SDS011;42623;49.978;9.966;2023-01-24T00:09:25;9.13;;;4.85;;
56746;SDS011;42623;49.978;9.966;2023-01-24T00:09:35;9.70;;;4.97;;
56746;SDS011;42623;49.978;9.966;2023-01-24T00:09:46;10.60;;;5.57;;
56746;SDS011;42623;49.978;9.966;2023-01-24T00:09:56;10.43;;;5.80;;
56746;SDS011;42623;49.978;9.966;2023-01-24T00:10:06;12.00;;;5.93;;
56746;SDS011;42623;49.978;9.966;2023-01-24T00:10:17;11.55;;;5.65;;
56746;SDS011;42623;49.978;9.966;2023-01-24T00:10:27;12.37;;;5.67;;
56746;SDS011;42623;49.978;9.966;2023-01-24T00:10:39;11.25;;;5.57;;
56746;SDS011;42623;49.978;9.966;2023-01-24T00:10:56;11.25;;;5.28;;
56746;SDS011;42623;49.978;9.966;2023-01-24T00:11:08;10.15;;;5.57;;
56746;SDS011;42623;49.978;9.966;2023-01-24T00:11:18;11.23;;;5.68;;
56746;SDS011;42623;49.978;9.966;2023-01-24T00:11:28;12.87;;;6.50;;
56746;SDS011;42623;49.978;9.966;2023-01-24T00:11:38;12.43;;;6.23;;
56746;SDS011;42623;49.978;9.966;2023-01-24T00:11:48;12.65;;;6.80;;
56746;SDS011;42623;49.978;9.966;2023-01-24T00:11:59;10.87;;;6.07;;
56746;SDS011;42623;49.978;9.966;2023-01-24T00:12:09;10.70;;;6.20;;
56746;SDS011;42623;49.978;9.966;2023-01-24T00:12:19;10.07;;;5.50;;
56746;SDS011;42623;49.978;9.966;2023-01-24T00:12:29;10.03;;;5.23;;
56746;SDS011;42623;49.978;9.966;2023-01-24T00:12:39;10.30;;;5.32;;
56746;SDS011;42623;49.978;9.966;2023-01-24T00:12:49;9.80;;;5.40;;
56746;SDS011;42623;49.978;9.966;2023-01-24T00:13:00;9.67;;;5.33;;
56746;SDS011;42623;49.978;9.966;2023-01-24T00:13:11;10.63;;;5.67;;
56746;SDS011;42623;49.978;9.966;2023-01-24T00:13:21;11.70;;;6.32;;
56746;SDS011;42623;49.978;9.966;2023-01-24T00:13:32;12.27;;;6.63;;
56746;SDS011;42623;49.978;9.966;2023-01-24T00:13:42;11.18;;;5.97;;
56746;SDS011;42623;49.978;9.966;2023-01-24T00:13:52;10.03;;;5.73;;
56746;SDS011;42623;49.978;9.966;2023-01-24T00:14:02;10.83;;;5.67;;
56746;SDS011;42623;49.978;9.966;2023-01-24T00:14:13;10.88;;;5.97;;
56746;SDS011;42623;49.978;9.966;2023-01-24T00:14:23;10.80;;;5.63;;
56746;SDS011;42623;49.978;9.966;2023-01-24T00:14:33;9.47;;;5.30;;
56746;SDS011;42623;49.978;9.966;2023-01-24T00:14:43;9.60;;;5.13;;
56746;SDS011;42623;49.978;9.966;2023-01-24T00:14:53;9.50;;;5.40;;
56746;SDS011;42623;49.978;9.966;2023-01-24T00:15:04;9.52;;;5.30;;
56746;SDS011;42623;49.978;9.966;2023-01-24T00:15:14;10.00;;;5.17;;
56746;SDS011;42623;49.978;9.966;2023-01-24T00:15:24;10.63;;;4.82;;
56746;SDS011;42623;49.978;9.966;2023-01-24T00:15:34;11.50;;;5.17;;
56746;SDS011;42623;49.978;9.966;2023-01-24T00:15:45;11.20;;;5.23;;
56746;SDS011;42623;49.978;9.966;2023-01-24T00:16:03;10.50;;;5.30;;
56746;SDS011;42623;49.978;9.966;2023-01-24T00:16:15;10.65;;;5.30;;
56746;SDS011;42623;49.978;9.966;2023-01-24T00:16:25;9.85;;;5.38;;
56746;SDS011;42623;49.978;9.966;2023-01-24T00:16:36;10.43;;;6.07;;
56746;SDS011;42623;49.978;9.966;2023-01-24T00:16:46;10.43;;;5.65;;
56746;SDS011;42623;49.978;9.966;2023-01-24T00:16:56;11.73;;;5.93;;
56746;SDS011;42623;49.978;9.966;2023-01-24T00:17:06;10.30;;;5.30;;
56746;SDS011;42623;49.978;9.966;2023-01-24T00:17:19;10.02;;;5.68;;
56746;SDS011;42623;49.978;9.966;2023-01-24T00:17:30;9.63;;;5.68;;
56746;SDS011;42623;49.978;9.966;2023-01-24T00:17:40;10.10;;;6.03;;
56746;SDS011;42623;49.978;9.966;2023-01-24T00:17:51;10.23;;;5.57;;
56746;SDS011;42623;49.978;9.966;2023-01-24T00:18:01;9.63;;;5.40;;
56746;SDS011;42623;49.978;9.966;2023-01-24T00:18:11;11.87;;;6.13;;
56746;SDS011;42623;49.978;9.966;2023-01-24T00:18:21;11.63;;;6.17;;
56746;SDS011;42623;49.978;9.966;2023-01-24T00:18:31;11.65;;;6.13;;
56746;SDS011;42623;49.978;9.966;2023-01-24T00:18:43;9.40;;;5.25;;
56746;SDS011;42623;49.978;9.966;2023-01-24T00:18:54;11.13;;;6.00;;
56746;SDS011;42623;49.978;9.966;2023-01-24T00:19:04;12.73;;;6.23;;
56746;SDS011;42623;49.978;9.966;2023-01-24T00:19:14;14.47;;;6.90;;
56746;SDS011;42623;49.978;9.966;2023-01-24T00:19:24;13.80;;;7.38;;
56746;SDS011;42623;49.978;9.966;2023-01-24T00:19:34;13.87;;;7.77;;
56746;SDS011;42623;49.978;9.966;2023-01-24T00:19:45;14.10;;;8.00;;
56746;SDS011;42623;49.978;9.966;2023-01-24T00:19:55;14.55;;;8.07;;
56746;SDS011;42623;49.978;9.966;2023-01-24T00:20:05;13.50;;;7.73;;
56746;SDS011;42623;49.978;9.966;2023-01-24T00:20:15;13.00;;;7.90;;
56746;SDS011;42623;49.978;9.966;2023-01-24T00:20:26;13.15;;;7.93;;
56746;SDS011;42623;49.978;9.966;2023-01-24T00:20:36;12.97;;;8.13;;
56746;SDS011;42623;49.978;9.966;2023-01-24T00:20:46;12.53;;;8.10;;
56746;SDS011;42623;49.978;9.966;2023-01-24T00:21:00;13.50;;;8.43;;
56746;SDS011;42623;49.978;9.966;2023-01-24T00:21:11;13.48;;;8.02;;
56746;SDS011;42623;49.978;9.966;2023-01-24T00:21:23;14.05;;;7.82;;
56746;SDS011;42623;49.978;9.966;2023-01-24T00:21:34;14.93;;;7.47;;
56746;SDS011;42623;49.978;9.966;2023-01-24T00:21:44;15.43;;;7.47;;
56746;SDS011;42623;49.978;9.966;2023-01-24T00:21:54;13.97;;;7.17;;
56746;SDS011;42623;49.978;9.966;2023-01-24T00:22:04;13.18;;;7.60;;
56746;SDS011;42623;49.978;9.966;2023-01-24T00:22:15;13.60;;;8.23;;
56746;SDS011;42623;49.978;9.966;2023-01-24T00:22:25;15.80;;;8.60;;
56746;SDS011;42623;49.978;9.966;2023-01-24T00:22:36;16.13;;;8.33;;
56746;SDS011;42623;49.978;9.966;2023-01-24T00:22:46;14.70;;;7.80;;
56746;SDS011;42623;49.978;9.966;2023-01-24T00:22:56;13.00;;;7.53;;
56746;SDS011;42623;49.978;9.966;2023-01-24T00:23:06;12.67;;;7.33;;
56746;SDS011;42623;49.978;9.966;2023-01-24T00:23:16;14.67;;;8.07;;
56746;SDS011;42623;49.978;9.966;2023-01-24T00:23:26;13.30;;;7.37;;
56746;SDS011;42623;49.978;9.966;2023-01-24T00:23:36;13.33;;;7.47;;
56746;SDS011;42623;49.978;9.966;2023-01-24T00:23:51;11.70;;;6.82;;
56746;SDS011;42623;49.978;9.966;2023-01-24T00:24:02;13.00;;;7.00;;
56746;SDS011;42623;49.978;9.966;2023-01-24T00:24:12;14.00;;;7.43;;
56746;SDS011;42623;49.978;9.966;2023-01-24T00:24:22;12.37;;;7.13;;
56746;SDS011;42623;49.978;9.966;2023-01-24T00:24:32;13.47;;;7.63;;
56746;SDS011;42623;49.978;9.966;2023-01-24T00:24:44;12.80;;;7.30;;
56746;SDS011;42623;49.978;9.966;2023-01-24T00:24:55;12.65;;;7.03;;
56746;SDS011;42623;49.978;9.966;2023-01-24T00:25:06;11.43;;;6.80;;
56746;SDS011;42623;49.978;9.966;2023-01-24T00:25:16;12.27;;;7.20;;
56746;SDS011;42623;49.978;9.966;2023-01-24T00:25:26;13.18;;;7.57;;
56746;SDS011;42623;49.978;9.966;2023-01-24T00:25:36;13.07;;;7.20;;
56746;SDS011;42623;49.978;9.966;2023-01-24T00:25:46;12.57;;;7.10;;
56746;SDS011;42623;49.978;9.966;2023-01-24T00:25:56;11.87;;;7.00;;
56746;SDS011;42623;49.978;9.966;2023-01-24T00:26:07;12.02;;;6.88;;
56746;SDS011;42623;49.978;9.966;2023-01-24T00:26:17;11.87;;;6.60;;
56746;SDS011;42623;49.978;9.966;2023-01-24T00:26:28;11.30;;;6.35;;
56746;SDS011;42623;49.978;9.966;2023-01-24T00:26:38;10.13;;;6.00;;
56746;SDS011;42623;49.978;9.966;2023-01-24T00:26:48;9.87;;;5.90;;
56746;SDS011;42623;49.978;9.966;2023-01-24T00:26:58;11.40;;;6.50;;
56746;SDS011;42623;49.978;9.966;2023-01-24T00:27:09;12.00;;;6.63;;
56746;SDS011;42623;49.978;9.966;2023-01-24T00:27:19;12.60;;;6.50;;
56746;SDS011;42623;49.978;9.966;2023-01-24T00:27:29;12.50;;;6.53;;
56746;SDS011;42623;49.978;9.966;2023-01-24T00:27:41;12.15;;;6.63;;
56746;SDS011;42623;49.978;9.966;2023-01-24T00:27:51;12.13;;;7.15;;
56746;SDS011;42623;49.978;9.966;2023-01-24T00:28:01;11.67;;;6.80;;
56746;SDS011;42623;49.978;9.966;2023-01-24T00:28:11;10.03;;;6.53;;
56746;SDS011;42623;49.978;9.966;2023-01-24T00:28:21;10.27;;;6.47;;
56746;SDS011;42623;49.978;9.966;2023-01-24T00:28:32;10.57;;;6.87;;
56746;SDS011;42623;49.978;9.966;2023-01-24T00:28:42;10.88;;;6.63;;
56746;SDS011;42623;49.978;9.966;2023-01-24T00:28:53;10.77;;;6.40;;
56746;SDS011;42623;49.978;9.966;2023-01-24T00:29:03;11.40;;;6.53;;
56746;SDS011;42623;49.978;9.966;2023-01-24T00:29:14;12.25;;;6.93;;
56746;SDS011;42623;49.978;9.966;2023-01-24T00:29:24;12.63;;;6.83;;
56746;SDS011;42623;49.978;9.966;2023-01-24T00:29:34;12.20;;;6.73;;
56746;SDS011;42623;49.978;9.966;2023-01-24T00:29:45;11.83;;;6.50;;
56746;SDS011;42623;49.978;9.966;2023-01-24T00:29:55;10.90;;;6.57;;
56746;SDS011;42623;49.978;9.966;2023-01-24T00:30:05;10.73;;;6.37;;
56746;SDS011;42623;49.978;9.966;2023-01-24T00:30:15;11.43;;;6.33;;
56746;SDS011;42623;49.978;9.966;2023-01-24T00:30:25;11.68;;;6.53;;
56746;SDS011;42623;49.978;9.966;2023-01-24T00:30:36;11.53;;;6.13;;
56746;SDS011;42623;49.978;9.966;2023-01-24T00:30:46;11.80;;;5.87;;
56746;SDS011;42623;49.978;9.966;2023-01-24T00:30:56;11.13;;;5.00;;
56746;SDS011;42623;49.978;9.966;2023-01-24T00:31:06;10.60;;;5.18;;
56746;SDS011;42623;49.978;9.966;2023-01-24T00:31:16;9.47;;;5.50;;
56746;SDS011;42623;49.978;9.966;2023-01-24T00:31:27;10.27;;;6.20;;
56746;SDS011;42623;49.978;9.966;2023-01-24T00:31:37;9.70;;;5.65;;
56746;SDS011;42623;49.978;9.966;2023-01-24T00:31:47;10.03;;;5.67;;
56746;SDS011;42623;49.978;9.966;2023-01-24T00:31:57;11.07;;;5.50;;
56746;SDS011;42623;49.978;9.966;2023-01-24T00:32:08;10.77;;;5.43;;
56746;SDS011;42623;49.978;9.966;2023-01-24T00:32:18;9.83;;;5.13;;
56746;SDS011;42623;49.978;9.966;2023-01-24T00:32:28;8.57;;;5.47;;
56746;SDS011;42623;49.978;9.966;2023-01-24T00:32:38;9.47;;;6.10;;
56746;SDS011;42623;49.978;9.966;2023-01-24T00:32:48;9.77;;;5.97;;
56746;SDS011;42623;49.978;9.966;2023-01-24T00:32:59;9.40;;;5.07;;
56746;SDS011;42623;49.978;9.966;2023-01-24T00:33:09;8.97;;;5.03;;
56746;SDS011;42623;49.978;9.966;2023-01-24T00:33:19;8.97;;;5.30;;
56746;SDS011;42623;49.978;9.966;2023-01-24T00:33:29;10.10;;;5.87;;
56746;SDS011;42623;49.978;9.966;2023-01-24T00:33:39;10.80;;;5.97;;
56746;SDS011;42623;49.978;9.966;2023-01-24T00:33:49;11.52;;;6.28;;
56746;SDS011;42623;49.978;9.966;2023-01-24T00:33:59;10.97;;;5.90;;
56746;SDS011;42623;49.978;9.966;2023-01-24T00:34:10;9.95;;;5.55;;
56746;SDS011;42623;49.978;9.966;2023-01-24T00:34:21;9.17;;;5.10;;
56746;SDS011;42623;49.978;9.966;2023-01-24T00:34:31;9.77;;;5.50;;
56746;SDS011;42623;49.978;9.966;2023-01-24T00:34:41;10.10;;;5.78;;
56746;SDS011;42623;49.978;9.966;2023-01-24T00:34:51;9.90;;;5.90;;
56746;SDS011;42623;49.978;9.966;2023-01-24T00:35:01;9.60;;;5.43;;
56746;SDS011;42623;49.978;9.966;2023-01-24T00:35:12;9.88;;;5.35;;
56746;SDS011;42623;49.978;9.966;2023-01-24T00:35:22;9.70;;;5.03;;
56746;SDS011;42623;49.978;9.966;2023-01-24T00:35:32;9.47;;;5.33;;
56746;SDS011;42623;49.978;9.966;2023-01-24T00:35:42;10.23;;;5.73;;
56746;SDS011;42623;49.978;9.966;2023-01-24T00:35:52;11.07;;;6.27;;
56746;SDS011;42623;49.978;9.966;2023-01-24T00:36:03;12.45;;;6.63;;
56746;SDS011;42623;49.978;9.966;2023-01-24T00:36:13;12.13;;;6.20;;
56746;SDS011;42623;49.978;9.966;2023-01-24T00:36:23;11.18;;;5.88;;
56746;SDS011;42623;49.978;9.966;2023-01-24T00:36:34;9.77;;;5.37;;
56746;SDS011;42623;49.978;9.966;2023-01-24T00:36:44;9.67;;;5.53;;
56746;SDS011;42623;49.978;9.966;2023-01-24T00:36:54;9.93;;;5.40;;
56746;SDS011;42623;49.978;9.966;2023-01-24T00:37:05;10.55;;;5.38;;
56746;SDS011;42623;49.978;9.966;2023-01-24T00:37:15;9.90;;;5.15;;
56746;SDS011;42623;49.978;9.966;2023-01-24T00:37:25;9.33;;;4.87;;
56746;SDS011;42623;49.978;9.966;2023-01-24T00:37:36;9.60;;;4.83;;
56746;SDS011;42623;49.978;9.966;2023-01-24T00:37:46;10.20;;;4.95;;
56746;SDS011;42623;49.978;9.966;2023-01-24T00:37:56;10.30;;;4.93;;
56746;SDS011;42623;49.978;9.966;2023-01-24T00:38:06;9.87;;;4.83;;
56746;SDS011;42623;49.978;9.966;2023-01-24T00:38:17;9.53;;;4.70;;
56746;SDS011;42623;49.978;9.966;2023-01-24T00:38:27;9.70;;;4.97;;
56746;SDS011;42623;49.978;9.966;2023-01-24T00:38:38;9.52;;;5.15;;
56746;SDS011;42623;49.978;9.966;2023-01-24T00:38:48;9.73;;;5.00;;
56746;SDS011;42623;49.978;9.966;2023-01-24T00:38:58;11.40;;;4.97;;
56746;SDS011;42623;49.978;9.966;2023-01-24T00:39:09;11.03;;;4.77;;
56746;SDS011;42623;49.978;9.966;2023-01-24T00:39:19;11.27;;;5.32;;
56746;SDS011;42623;49.978;9.966;2023-01-24T00:39:30;10.27;;;5.43;;
56746;SDS011;42623;49.978;9.966;2023-01-24T00:39:40;11.10;;;6.17;;
56746;SDS011;42623;49.978;9.966;2023-01-24T00:39:50;10.03;;;5.50;;
56746;SDS011;42623;49.978;9.966;2023-01-24T00:40:00;8.73;;;4.93;;
56746;SDS011;42623;49.978;9.966;2023-01-24T00:40:10;8.75;;;4.30;;
56746;SDS011;42623;49.978;9.966;2023-01-24T00:40:20;9.23;;;4.53;;
56746;SDS011;42623;49.978;9.966;2023-01-24T00:40:30;9.97;;;5.20;;
56746;SDS011;42623;49.978;9.966;2023-01-24T00:40:41;9.87;;;5.53;;
56746;SDS011;42623;49.978;9.966;2023-01-24T00:40:51;10.25;;;5.40;;
56746;SDS011;42623;49.978;9.966;2023-01-24T00:41:01;9.20;;;4.90;;
56746;SDS011;42623;49.978;9.966;2023-01-24T00:41:11;8.90;;;4.40;;
56746;SDS011;42623;49.978;9.966;2023-01-24T00:41:21;9.03;;;4.23;;
56746;SDS011;42623;49.978;9.966;2023-01-24T00:41:32;10.15;;;4.63;;
56746;SDS011;42623;49.978;9.966;2023-01-24T00:41:42;10.07;;;4.90;;
56746;SDS011;42623;49.978;9.966;2023-01-24T00:41:52;9.87;;;5.10;;
56746;SDS011;42623;49.978;9.966;2023-01-24T00:42:02;9.77;;;4.93;;
56746;SDS011;42623;49.978;9.966;2023-01-24T00:42:12;10.03;;;4.93;;
56746;SDS011;42623;49.978;9.966;2023-01-24T00:42:22;9.50;;;5.15;;
56746;SDS011;42623;49.978;9.966;2023-01-24T00:42:32;8.37;;;5.10;;
56746;SDS011;42623;49.978;9.966;2023-01-24T00:42:43;9.87;;;5.33;;
56746;SDS011;42623;49.978;9.966;2023-01-24T00:42:53;9.90;;;5.50;;
56746;SDS011;42623;49.978;9.966;2023-01-24T00:43:03;11.50;;;6.00;;
56746;SDS011;42623;49.978;9.966;2023-01-24T00:43:13;9.93;;;5.70;;
56746;SDS011;42623;49.978;9.966;2023-01-24T00:43:23;10.57;;;5.43;;
56746;SDS011;42623;49.978;9.966;2023-01-24T00:43:35;10.65;;;5.28;;
56746;SDS011;42623;49.978;9.966;2023-01-24T00:43:46;10.97;;;5.30;;
56746;SDS011;42623;49.978;9.966;2023-01-24T00:43:56;10.48;;;5.47;;
56746;SDS011;42623;49.978;9.966;2023-01-24T00:44:06;9.77;;;5.40;;
56746;SDS011;42623;49.978;9.966;2023-01-24T00:44:16;8.73;;;4.73;;
56746;SDS011;42623;49.978;9.966;2023-01-24T00:44:26;9.77;;;4.67;;
56746;SDS011;42623;49.978;9.966;2023-01-24T00:44:36;10.10;;;4.72;;
56746;SDS011;42623;49.978;9.966;2023-01-24T00:44:47;10.63;;;5.17;;
56746;SDS011;42623;49.978;9.966;2023-01-24T00:44:57;9.83;;;5.03;;
56746;SDS011;42623;49.978;9.966;2023-01-24T00:45:07;9.17;;;4.80;;
56746;SDS011;42623;49.978;9.966;2023-01-24T00:45:17;10.20;;;4.90;;
56746;SDS011;42623;49.978;9.966;2023-01-24T00:45:27;11.18;;;5.55;;
56746;SDS011;42623;49.978;9.966;2023-01-24T00:45:38;12.23;;;5.90;;
56746;SDS011;42623;49.978;9.966;2023-01-24T00:45:48;11.57;;;5.53;;
56746;SDS011;42623;49.978;9.966;2023-01-24T00:45:58;11.38;;;5.68;;
56746;SDS011;42623;49.978;9.966;2023-01-24T00:46:09;10.67;;;5.67;;
56746;SDS011;42623;49.978;9.966;2023-01-24T00:46:19;10.43;;;5.80;;
56746;SDS011;42623;49.978;9.966;2023-01-24T00:46:29;10.32;;;5.78;;
56746;SDS011;42623;49.978;9.966;2023-01-24T00:46:39;11.80;;;5.87;;
56746;SDS011;42623;49.978;9.966;2023-01-24T00:46:51;11.43;;;5.80;;
56746;SDS011;42623;49.978;9.966;2023-01-24T00:47:01;11.07;;;5.28;;
56746;SDS011;42623;49.978;9.966;2023-01-24T00:47:11;10.20;;;4.90;;
56746;SDS011;42623;49.978;9.966;2023-01-24T00:47:22;10.25;;;5.18;;
56746;SDS011;42623;49.978;9.966;2023-01-24T00:47:32;9.63;;;5.20;;
56746;SDS011;42623;49.978;9.966;2023-01-24T00:47:42;9.07;;;5.00;;
56746;SDS011;42623;49.978;9.966;2023-01-24T00:47:52;9.37;;;4.77;;
56746;SDS011;42623;49.978;9.966;2023-01-24T00:48:03;9.63;;;4.73;;
56746;SDS011;42623;49.978;9.966;2023-01-24T00:48:13;9.63;;;4.97;;
56746;SDS011;42623;49.978;9.966;2023-01-24T00:48:23;9.03;;;4.83;;
56746;SDS011;42623;49.978;9.966;2023-01-24T00:48:34;9.03;;;4.73;;
56746;SDS011;42623;49.978;9.966;2023-01-24T00:48:44;9.40;;;4.70;;
56746;SDS011;42623;49.978;9.966;2023-01-24T00:48:54;9.63;;;5.23;;
56746;SDS011;42623;49.978;9.966;2023-01-24T00:49:05;9.97;;;5.73;;
56746;SDS011;42623;49.978;9.966;2023-01-24T00:49:15;10.13;;;6.20;;
56746;SDS011;42623;49.978;9.966;2023-01-24T00:49:25;11.07;;;6.70;;
56746;SDS011;42623;49.978;9.966;2023-01-24T00:49:35;9.90;;;6.17;;
56746;SDS011;42623;49.978;9.966;2023-01-24T00:49:45;9.83;;;5.93;;
56746;SDS011;42623;49.978;9.966;2023-01-24T00:49:55;9.37;;;5.30;;
56746;SDS011;42623;49.978;9.966;2023-01-24T00:50:06;9.17;;;5.00;;
56746;SDS011;42623;49.978;9.966;2023-01-24T00:50:16;8.83;;;4.77;;
56746;SDS011;42623;49.978;9.966;2023-01-24T00:50:26;9.27;;;5.10;;
56746;SDS011;42623;49.978;9.966;2023-01-24T00:50:36;9.60;;;5.10;;
56746;SDS011;42623;49.978;9.966;2023-01-24T00:50:46;9.20;;;5.18;;
56746;SDS011;42623;49.978;9.966;2023-01-24T00:50:57;8.83;;;5.30;;
56746;SDS011;42623;49.978;9.966;2023-01-24T00:51:07;8.47;;;5.33;;
56746;SDS011;42623;49.978;9.966;2023-01-24T00:51:17;8.73;;;5.37;;
56746;SDS011;42623;49.978;9.966;2023-01-24T00:51:27;8.40;;;4.97;;
56746;SDS011;42623;49.978;9.966;2023-01-24T00:51:37;8.90;;;4.97;;
56746;SDS011;42623;49.978;9.966;2023-01-24T00:51:47;9.60;;;5.00;;
56746;SDS011;42623;49.978;9.966;2023-01-24T00:51:58;10.17;;;5.17;;
56746;SDS011;42623;49.978;9.966;2023-01-24T00:52:08;10.33;;;5.07;;
56746;SDS011;42623;49.978;9.966;2023-01-24T00:52:18;9.93;;;5.57;;
56746;SDS011;42623;49.978;9.966;2023-01-24T00:52:28;9.93;;;5.53;;
56746;SDS011;42623;49.978;9.966;2023-01-24T00:52:38;9.97;;;5.67;;
56746;SDS011;42623;49.978;9.966;2023-01-24T00:52:48;9.70;;;5.13;;
56746;SDS011;42623;49.978;9.966;2023-01-24T00:52:59;9.27;;;4.97;;
56746;SDS011;42623;49.978;9.966;2023-01-24T00:53:09;8.52;;;4.60;;
56746;SDS011;42623;49.978;9.966;2023-01-24T00:53:19;9.53;;;4.93;;
56746;SDS011;42623;49.978;9.966;2023-01-24T00:53:29;10.07;;;5.00;;
56746;SDS011;42623;49.978;9.966;2023-01-24T00:53:39;11.45;;;5.13;;
56746;SDS011;42623;49.978;9.966;2023-01-24T00:53:49;10.03;;;4.40;;
56746;SDS011;42623;49.978;9.966;2023-01-24T00:54:00;8.97;;;4.53;;
56746;SDS011;42623;49.978;9.966;2023-01-24T00:54:10;7.27;;;4.30;;
56746;SDS011;42623;49.978;9.966;2023-01-24T00:54:20;7.03;;;4.00;;
56746;SDS011;42623;49.978;9.966;2023-01-24T00:54:30;7.38;;;3.95;;
56746;SDS011;42623;49.978;9.966;2023-01-24T00:54:40;7.53;;;3.60;;
56746;SDS011;42623;49.978;9.966;2023-01-24T00:54:51;8.80;;;4.17;;
56746;SDS011;42623;49.978;9.966;2023-01-24T00:55:01;9.20;;;4.33;;
56746;SDS011;42623;49.978;9.966;2023-01-24T00:55:11;9.85;;;4.90;;
56746;SDS011;42623;49.978;9.966;2023-01-24T00:55:21;10.13;;;4.97;;
56746;SDS011;42623;49.978;9.966;2023-01-24T00:55:31;9.77;;;4.83;;
56746;SDS011;42623;49.978;9.966;2023-01-24T00:55:42;10.00;;;4.95;;
56746;SDS011;42623;49.978;9.966;2023-01-24T00:55:53;9.48;;;4.80;;
56746;SDS011;42623;49.978;9.966;2023-01-24T00:56:04;9.50;;;5.18;;
56746;SDS011;42623;49.978;9.966;2023-01-24T00:56:15;8.85;;;4.97;;
56746;SDS011;42623;49.978;9.966;2023-01-24T00:56:25;9.23;;;5.37;;
56746;SDS011;42623;49.978;9.966;2023-01-24T00:56:35;9.43;;;5.20;;
56746;SDS011;42623;49.978;9.966;2023-01-24T00:56:46;9.17;;;5.00;;
56746;SDS011;42623;49.978;9.966;2023-01-24T00:56:56;8.93;;;4.77;;
56746;SDS011;42623;49.978;9.966;2023-01-24T00:57:06;8.77;;;4.73;;
56746;SDS011;42623;49.978;9.966;2023-01-24T00:57:16;9.52;;;4.88;;
56746;SDS011;42623;49.978;9.966;2023-01-24T00:57:26;9.33;;;4.80;;
56746;SDS011;42623;49.978;9.966;2023-01-24T00:57:36;9.70;;;4.60;;
56746;SDS011;42623;49.978;9.966;2023-01-24T00:57:46;9.20;;;4.50;;
56746;SDS011;42623;49.978;9.966;2023-01-24T00:57:57;9.70;;;4.60;;
56746;SDS011;42623;49.978;9.966;2023-01-24T00:58:07;9.30;;;4.77;;
56746;SDS011;42623;49.978;9.966;2023-01-24T00:58:17;9.17;;;4.70;;
56746;SDS011;42623;49.978;9.966;2023-01-24T00:58:27;8.97;;;4.63;;
56746;SDS011;42623;49.978;9.966;2023-01-24T00:58:37;9.40;;;4.57;;
56746;SDS011;42623;49.978;9.966;2023-01-24T00:58:47;10.83;;;4.87;;
56746;SDS011;42623;49.978;9.966;2023-01-24T00:58:58;10.27;;;5.03;;
56746;SDS011;42623;49.978;9.966;2023-01-24T00:59:08;9.90;;;5.37;;
56746;SDS011;42623;49.978;9.966;2023-01-24T00:59:18;8.60;;;5.23;;
56746;SDS011;42623;49.978;9.966;2023-01-24T00:59:28;9.17;;;5.33;;
56746;SDS011;42623;49.978;9.966;2023-01-24T00:59:38;9.50;;;5.10;;
56746;SDS011;42623;49.978;9.966;2023-01-24T00:59:48;9.80;;;4.97;;
56746;SDS011;42623;49.978;9.966;2023-01-24T00:59:59;9.53;;;4.70;;
56746;SDS011;42623;49.978;9.966;2023-01-24T01:00:09;9.57;;;4.87;;
56746;SDS011;42623;49.978;9.966;2023-01-24T01:00:20;9.50;;;4.75;;
56746;SDS011;42623;49.978;9.966;2023-01-24T01:00:30;9.07;;;4.70;;
56746;SDS011;42623;49.978;9.966;2023-01-24T01:00:40;8.97;;;4.73;;
56746;SDS011;42623;49.978;9.966;2023-01-24T01:00:53;7.67;;;4.23;;
56746;SDS011;42623;49.978;9.966;2023-01-24T01:01:04;8.05;;;4.05;;
56746;SDS011;42623;49.978;9.966;2023-01-24T01:01:14;9.48;;;4.35;;
56746;SDS011;42623;49.978;9.966;2023-01-24T01:01:24;10.50;;;4.53;;
56746;SDS011;42623;49.978;9.966;2023-01-24T01:01:34;10.23;;;5.17;;
56746;SDS011;42623;49.978;9.966;2023-01-24T01:01:44;9.57;;;5.07;;
56746;SDS011;42623;49.978;9.966;2023-01-24T01:01:55;9.07;;;5.00;;
56746;SDS011;42623;49.978;9.966;2023-01-24T01:02:05;8.63;;;4.47;;